Pagrindinis puslapis
METAR-TAF:

METAR-TAF

Oro uostai :

Ankona, Italija

platuma: 43-37N, ilguma: 013-22E, Aukštis: 12 m

Dabartinis oras

Ataskaita buvo paskelbta 1 valandą ir 19 minutes, ne 21:50 UTC
Vėjas 4 kt iš Pietų, svyruoja nuo Pietryčių ir Pietų/Pietvakarių
Temperatūra 6°C
Drėgmė 100%
Slėgis 1017 hPa
Matomumas 10 km arba daugiau
nėra debesų žemiau 1500 m ir nėra kamuolinių lietaus debesų

METAR: LIPY 272150Z 17004KT 140V210 CAVOK 06/06 Q1017

Laikas: 00:09 (23:09 UTC)

Prognozė

Ataskaita buvo paskelbta 6 valandos ir 9 minutes, ne 17:00 UTC
Prognozė galioja nuo 27 metu 18 UTC su 28 metu 18 UTC
Vėjas 4 kt nuo kintamojo kryptimis
Matomumas: 8000 m
Išsisklaidę debesys ne aukštis 2000 ft
Laikinai
nuo 27 metu 22 UTC su 28 metu 08 UTC
Matomumas: 1500 m
rūkana

TAF: LIPY 271700Z 2718/2818 VRB04KT 8000 SCT020 TEMPO 2722/2808 1500 BR

Orai ataskaitas ir orų prognozės (METAR, TAF).

turimą stotys yra geltonos ir raudonos taškus žemėlapyje.

Perkelti pele per norėdami pamatyti stoties vardą.

Tada spustelėkite, norėdami matyti oro stebėjimo ir prognozės.

Norėdami pakeisti žemėlapį: spustelėkite ant žalios mygtukų su juodo kryžiaus žemyn,; žalią mygtuką su brūkšneliu, jei norite nutolinti; arba žalių rodyklių gretimoms žemėlapius.


METAR-TAF: